Terminal Aerodrome Forecast
Issued by NWS

Home | Current Version | Previous Version | Text Only | Print | Product List | Glossary On
Versions: 1 2 3 4 5 6 7 8 9 10 11 12 13
926
FTUS44 KSJT 281120
TAFJCT
TAF
KJCT 281120Z 2812/2912 VRB04KT P6SM SCT120
     FM281800 17008KT P6SM VCTS BKN060CB
     FM290200 VRB04KT P6SM SCT120=

USA.gov is the U.S. government's official web portal to all federal, state and local government web resources and services.